CheckWX is a tool to help pilots better visualize weather data.  It is not intended as a substitute for an official pre-flight weather briefing.

04:15:11 UTC

KTZR METAR
Bolton Field Airport
Columbus, Ohio, USA
Current

20 mins ago

KTZR 250355Z AUTO 00000KT 10SM OVC050 13/07 A2990 RMK AO2 T01290071
Observed
Apr-25 @ 03:55 UTC
Visibility
10 SM
Flight Rules
VFR
Cloud Levels
  • Overcast at 5,000' AGL
Temperature
13°C / 55°F
Dewpoint
C / 45°F
Humidity
67%
Altimeter
29.9" Hg
Pressure
1012.52 hPa
Previous

40 mins ago

KTZR 250335Z AUTO 11003KT 10SM OVC060 13/07 A2989 RMK AO2 T01260068
Observed
Apr-25 @ 03:35 UTC
Wind
  • 110° at 3 KTS
Visibility
10 SM
Flight Rules
VFR
Cloud Levels
  • Overcast at 6,000' AGL
Temperature
13°C / 55°F
Dewpoint
C / 45°F
Humidity
67%
Altimeter
29.89" Hg
Pressure
1012.22 hPa
Previous

60 mins ago

KTZR 250315Z AUTO 00000KT 10SM OVC070 13/07 A2991 RMK AO2 T01300067
Observed
Apr-25 @ 03:15 UTC
Visibility
10 SM
Flight Rules
VFR
Cloud Levels
  • Overcast at 7,000' AGL
Temperature
13°C / 55°F
Dewpoint
C / 45°F
Humidity
67%
Altimeter
29.91" Hg
Pressure
1012.92 hPa